Time;durP1;ratioP1;P1;durP2;ratioP2;P2;SDS_P1;SDS_P2;PMS_P1;PMS_P2;Temp;Humidity;BMP_temperature;BMP_pressure;BME280_temperature;BME280_humidity;BME280_pressure;Samples;Min_cycle;Max_cycle;Signal;HPM_P1;HPM_P2
2021/03/13 00:01:13;;;;;;;6.13;2.03;;;;;;;16.28;40.33;100084.78;4950137;28;115405;-74
2021/03/13 00:03:39;;;;;;;5.10;1.92;;;;;;;16.29;40.27;100083.84;4951696;28;115640;-74
2021/03/13 00:06:07;;;;;;;4.65;2.15;;;;;;;16.28;40.37;100079.50;4950243;28;124198;-74
2021/03/13 00:08:37;;;;;;;5.43;2.22;;;;;;;16.27;40.46;100079.59;4965954;28;124532;-73
2021/03/13 00:11:04;;;;;;;6.20;2.53;;;;;;;16.27;40.38;100064.56;4951587;28;114283;-73
2021/03/13 00:13:30;;;;;;;4.50;2.20;;;;;;;16.28;40.58;100062.75;4951245;28;113854;-74
2021/03/13 00:15:56;;;;;;;4.93;2.20;;;;;;;16.27;40.36;100061.06;4950616;28;124475;-74
2021/03/13 00:18:23;;;;;;;6.55;2.70;;;;;;;16.26;40.23;100054.06;4950703;28;124427;-75
2021/03/13 00:20:49;;;;;;;8.10;2.45;;;;;;;16.25;40.48;100053.22;4951116;28;114837;-75
2021/03/13 00:23:15;;;;;;;4.82;2.05;;;;;;;16.27;40.65;100039.88;4942983;28;114395;-73
2021/03/13 00:25:41;;;;;;;4.85;2.25;;;;;;;16.28;40.49;100036.28;4930159;28;124142;-74
2021/03/13 00:28:08;;;;;;;4.88;2.30;;;;;;;16.27;40.46;100018.69;4930498;28;124057;-75
2021/03/13 00:30:38;;;;;;;6.18;2.17;;;;;;;16.24;40.53;100014.44;4933439;28;114328;-74
2021/03/13 00:33:11;;;;;;;7.10;2.38;;;;;;;16.20;40.55;100023.53;4950304;28;114226;-76
2021/03/13 00:35:38;;;;;;;4.63;2.25;;;;;;;16.21;40.56;100017.28;4951140;28;123714;-75
2021/03/13 00:38:05;;;;;;;6.97;2.38;;;;;;;16.21;40.61;100008.50;4950300;28;124206;-74
2021/03/13 00:40:33;;;;;;;4.47;2.17;;;;;;;16.20;40.56;100012.94;4950243;28;114216;-76
2021/03/13 00:43:00;;;;;;;4.70;1.92;;;;;;;16.17;40.39;100007.81;4948967;28;114047;-74
2021/03/13 00:45:27;;;;;;;7.57;2.20;;;;;;;16.17;40.53;99997.22;4942747;28;124200;-72
2021/03/13 00:47:53;;;;;;;7.20;2.40;;;;;;;16.19;40.48;99999.75;4943115;28;123969;-73
2021/03/13 00:50:21;;;;;;;5.68;2.40;;;;;;;16.19;40.44;99994.47;4931178;28;114124;-72
2021/03/13 00:52:49;;;;;;;4.72;2.13;;;;;;;16.17;40.49;99985.78;4948367;28;114436;-74
2021/03/13 00:55:15;;;;;;;4.20;1.88;;;;;;;16.15;40.22;99977.94;4948863;28;124078;-75
2021/03/13 00:57:46;;;;;;;4.15;2.03;;;;;;;16.15;40.44;99961.19;4951451;28;124105;-73
2021/03/13 01:00:15;;;;;;;3.53;1.77;;;;;;;16.13;40.48;99961.28;4951768;28;113487;-75
2021/03/13 01:02:41;;;;;;;5.38;2.30;;;;;;;16.16;40.63;99941.72;4953768;28;114140;-75
2021/03/13 01:05:10;;;;;;;7.15;2.35;;;;;;;16.15;40.47;99934.72;4952203;28;123901;-74
2021/03/13 01:07:38;;;;;;;6.00;2.15;;;;;;;16.13;40.48;99920.75;4952480;28;123112;-76
2021/03/13 01:10:11;;;;;;;7.43;1.98;;;;;;;16.12;40.47;99908.44;4951948;28;113454;-74
2021/03/13 01:12:38;;;;;;;5.50;2.00;;;;;;;16.11;40.47;99904.09;4953287;28;115320;-73
2021/03/13 01:15:12;;;;;;;8.18;2.10;;;;;;;16.08;40.52;99898.97;4951778;28;123050;-74
2021/03/13 01:17:38;;;;;;;;;;;;;;;16.09;40.43;99896.25;4952902;28;124499;-74
2021/03/13 01:20:07;;;;;;;5.13;1.80;;;;;;;16.08;40.54;99883.09;4967901;28;113817;-75
2021/03/13 01:22:33;;;;;;;7.35;2.22;;;;;;;16.08;40.44;99880.44;4932901;28;114210;-75
2021/03/13 01:24:59;;;;;;;6.38;2.00;;;;;;;16.06;40.45;99883.19;4932128;28;124265;-77
2021/03/13 01:27:25;;;;;;;3.58;1.95;;;;;;;16.08;40.41;99873.34;4932159;28;123719;-75
2021/03/13 01:29:51;;;;;;;3.67;2.17;;;;;;;16.05;40.52;99855.03;4933843;28;114602;-77
2021/03/13 01:32:18;;;;;;;5.03;2.15;;;;;;;16.04;40.74;99858.63;4933188;28;114965;-74
2021/03/13 01:34:44;;;;;;;3.92;1.95;;;;;;;16.03;40.60;99859.56;4932448;28;123933;-75
2021/03/13 01:37:18;;;;;;;9.57;2.20;;;;;;;16.03;40.66;99854.28;4931612;28;123423;-74
2021/03/13 01:39:46;;;;;;;6.95;2.85;;;;;;;16.02;40.66;99836.72;4933186;28;115261;-74
2021/03/13 01:42:18;;;;;;;5.40;2.00;;;;;;;15.99;40.53;99824.53;4950968;28;114010;-74
2021/03/13 01:44:46;;;;;;;6.22;2.03;;;;;;;16.00;40.61;99825.38;4935541;28;121290;-74
2021/03/13 01:47:22;;;;;;;4.53;1.92;;;;;;;16.01;40.55;99816.47;4951625;28;122870;-76
2021/03/13 01:49:52;;;;;;;5.60;2.22;;;;;;;15.99;40.62;99798.06;4953436;28;115012;-74
2021/03/13 01:52:19;;;;;;;5.93;2.38;;;;;;;15.98;40.63;99771.69;4935780;28;113606;-74
2021/03/13 01:54:47;;;;;;;5.65;2.10;;;;;;;15.98;40.74;99767.25;4951508;28;123584;-75
2021/03/13 01:57:14;;;;;;;3.60;1.80;;;;;;;15.97;40.68;99757.63;4952117;28;122972;-75
2021/03/13 01:59:40;;;;;;;3.92;2.00;;;;;;;15.97;40.63;99752.31;4950949;28;113340;-76
2021/03/13 02:02:08;;;;;;;3.58;1.73;;;;;;;15.96;40.71;99750.59;4950715;28;113220;-73
2021/03/13 02:04:38;;;;;;;4.88;2.00;;;;;;;15.95;40.44;99745.41;4950892;28;122977;-72
2021/03/13 02:07:10;;;;;;;5.05;1.73;;;;;;;15.94;40.80;99736.63;4952139;28;124137;-74
2021/03/13 02:09:52;;;;;;;7.07;1.90;;;;;;;15.94;40.49;99715.44;4951327;28;114486;-74
2021/03/13 02:12:47;;;;;;;5.13;1.70;;;;;;;15.94;40.83;99720.75;4952119;28;113617;-74
2021/03/13 02:15:26;;;;;;;5.22;1.95;;;;;;;15.94;40.85;99704.88;4951242;28;123133;-73
2021/03/13 02:18:22;;;;;;;6.93;2.58;;;;;;;15.94;40.79;99698.72;4952439;28;124320;-74
2021/03/13 02:21:16;;;;;;;4.50;1.80;;;;;;;15.93;40.89;99694.38;4936312;28;112796;-75
2021/03/13 02:23:55;;;;;;;6.75;2.33;;;;;;;15.92;40.96;99653.84;4953584;28;114147;-73
2021/03/13 02:26:52;;;;;;;5.45;2.05;;;;;;;15.94;41.09;99673.13;4951625;28;123131;-74
2021/03/13 02:29:49;;;;;;;5.30;1.70;;;;;;;15.95;40.92;99653.63;4952290;28;125236;-73
2021/03/13 02:33:07;;;;;;;4.80;1.98;;;;;;;15.88;40.93;99623.25;4951823;28;114841;-74
2021/03/13 02:35:56;;;;;;;4.03;1.67;;;;;;;15.90;40.92;99602.84;4952669;28;114085;-75
2021/03/13 02:38:34;;;;;;;6.75;1.60;;;;;;;15.88;41.37;99620.59;4953981;28;123409;-75
2021/03/13 02:41:09;;;;;;;3.35;1.83;;;;;;;15.88;41.26;99610.03;4955438;28;123601;-73
2021/03/13 02:43:40;;;;;;;3.78;1.60;;;;;;;15.88;41.30;99583.56;4954469;28;114390;-74
2021/03/13 02:46:08;;;;;;;3.72;1.60;;;;;;;15.89;41.13;99589.72;4967668;28;113084;-74
2021/03/13 02:48:39;;;;;;;5.38;2.20;;;;;;;15.88;41.22;99588.00;4977625;28;122972;-73
2021/03/13 02:51:05;;;;;;;4.85;1.70;;;;;;;15.87;41.31;99575.72;4978604;28;123251;-76
2021/03/13 02:53:36;;;;;;;5.47;2.00;;;;;;;15.84;41.38;99566.19;4977294;28;113418;-74
2021/03/13 02:56:06;;;;;;;4.72;1.85;;;;;;;15.86;41.36;99569.59;4976629;28;111883;-73
2021/03/13 02:58:35;;;;;;;7.53;2.15;;;;;;;15.84;41.45;99542.38;4975811;28;122530;-74
2021/03/13 03:01:02;;;;;;;6.10;2.10;;;;;;;15.84;41.44;99550.31;4976507;28;122812;-74
2021/03/13 03:03:30;;;;;;;4.60;1.83;;;;;;;15.84;41.54;99542.38;4975333;28;113101;-74
2021/03/13 03:06:10;;;;;;;4.82;2.00;;;;;;;15.86;41.65;99537.00;4976299;28;112809;-74
2021/03/13 03:08:42;;;;;;;3.90;1.70;;;;;;;15.84;41.60;99526.50;4969709;28;123142;-74
2021/03/13 03:11:10;;;;;;;3.92;1.85;;;;;;;15.81;41.73;99510.84;4966580;28;122113;-78
2021/03/13 03:13:37;;;;;;;6.28;2.05;;;;;;;15.85;41.68;99512.31;4954468;28;112525;-74
2021/03/13 03:16:05;;;;;;;5.85;2.08;;;;;;;15.83;41.72;99506.28;4953249;28;113836;-73
2021/03/13 03:18:33;;;;;;;7.00;2.20;;;;;;;15.83;41.74;99493.06;4959240;28;122990;-73
2021/03/13 03:21:01;;;;;;;6.63;2.40;;;;;;;15.84;41.83;99476.22;4949871;28;122822;-73
2021/03/13 03:23:28;;;;;;;3.83;1.80;;;;;;;15.84;41.85;99456.88;4950032;28;114473;-73
2021/03/13 03:25:54;;;;;;;5.45;2.00;;;;;;;15.82;42.02;99458.78;4950094;28;113991;-73
2021/03/13 03:28:21;;;;;;;8.27;2.60;;;;;;;15.81;42.32;99444.69;4950304;28;124303;-73
2021/03/13 03:30:54;;;;;;;8.50;2.22;;;;;;;15.81;41.88;99439.41;4934707;28;123270;-77
2021/03/13 03:33:23;;;;;;;7.45;2.13;;;;;;;15.82;42.07;99434.97;4949942;28;114298;-75
2021/03/13 03:35:54;;;;;;;6.05;2.17;;;;;;;15.81;42.02;99431.47;4949831;28;113035;-74
2021/03/13 03:38:23;;;;;;;5.97;2.28;;;;;;;15.81;42.08;99423.53;4949592;28;123292;-74
2021/03/13 03:40:49;;;;;;;5.57;2.10;;;;;;;15.79;42.13;99399.00;4950649;28;122863;-74
2021/03/13 03:43:26;;;;;;;3.20;1.98;;;;;;;15.78;42.05;99392.00;4938602;28;113860;-77
2021/03/13 03:45:58;;;;;;;5.75;2.00;;;;;;;15.77;42.21;99395.63;4945593;28;113147;-74
2021/03/13 03:48:24;;;;;;;4.82;2.00;;;;;;;15.76;42.05;99391.28;4941014;28;123902;-73
2021/03/13 03:51:00;;;;;;;4.20;1.83;;;;;;;15.78;42.29;99394.66;4949631;28;124232;-74
2021/03/13 03:53:36;;;;;;;3.78;1.70;;;;;;;15.77;42.05;99379.75;4948934;28;114329;-75
2021/03/13 03:56:03;;;;;;;5.40;1.80;;;;;;;15.78;42.08;99380.59;4950186;28;114278;-75
2021/03/13 03:58:34;;;;;;;3.33;1.83;;;;;;;15.78;42.42;99376.13;4949218;28;124163;-78
2021/03/13 04:01:00;;;;;;;7.43;1.90;;;;;;;15.78;42.20;99370.00;4942047;28;123381;-75
2021/03/13 04:03:28;;;;;;;4.88;1.70;;;;;;;15.76;42.19;99367.47;4931383;28;114123;-75
2021/03/13 04:05:55;;;;;;;6.47;2.60;;;;;;;15.75;42.36;99355.19;4932188;28;114133;-74
2021/03/13 04:08:23;;;;;;;4.53;1.85;;;;;;;15.75;42.47;99363.13;4931169;28;124272;-73
2021/03/13 04:10:51;;;;;;;4.32;2.10;;;;;;;15.75;42.60;99351.72;4931398;28;125398;-76
2021/03/13 04:13:20;;;;;;;5.80;1.95;;;;;;;15.75;42.40;99349.91;4931238;28;115201;-74
2021/03/13 04:15:48;;;;;;;3.17;1.70;;;;;;;15.75;42.57;99341.97;4931452;28;115120;-72
2021/03/13 04:18:16;;;;;;;4.00;1.90;;;;;;;15.75;42.47;99334.03;4931027;28;124078;-74
2021/03/13 04:20:46;;;;;;;3.97;1.80;;;;;;;15.75;42.54;99338.47;4935827;28;124033;-72
2021/03/13 04:23:12;;;;;;;5.70;1.88;;;;;;;15.76;42.89;99327.78;4949804;28;114778;-74
2021/03/13 04:25:40;;;;;;;5.13;1.63;;;;;;;15.76;42.48;99334.88;4948352;28;112881;-74
2021/03/13 04:28:06;;;;;;;3.65;1.73;;;;;;;15.76;42.71;99329.59;4948513;28;123450;-74
2021/03/13 04:30:32;;;;;;;4.68;1.85;;;;;;;15.76;42.83;99335.72;4949035;28;124371;-75
2021/03/13 04:32:59;;;;;;;3.28;1.67;;;;;;;15.75;42.83;99320.81;4949272;28;114079;-74
2021/03/13 04:35:27;;;;;;;5.97;1.70;;;;;;;15.75;42.70;99327.91;4949930;28;114199;-72
2021/03/13 04:37:55;;;;;;;4.97;1.90;;;;;;;15.75;42.95;99317.31;4949437;28;124263;-74
2021/03/13 04:40:23;;;;;;;2.38;1.63;;;;;;;15.75;42.92;99323.47;4949255;28;125574;-72
2021/03/13 04:42:50;;;;;;;4.25;1.67;;;;;;;15.72;43.04;99310.44;4949907;28;114197;-74
2021/03/13 04:45:17;;;;;;;3.80;1.83;;;;;;;15.73;43.16;99314.75;4949474;28;113888;-73
2021/03/13 04:47:46;;;;;;;3.28;1.60;;;;;;;15.74;43.11;99327.03;4949385;28;124335;-75
2021/03/13 04:50:14;;;;;;;4.65;1.75;;;;;;;15.73;43.21;99317.41;4949030;28;123925;-75
2021/03/13 04:52:40;;;;;;;6.10;1.98;;;;;;;15.74;43.47;99321.75;4950661;28;114535;-74
2021/03/13 04:55:07;;;;;;;5.93;1.80;;;;;;;15.75;43.50;99323.47;4951375;28;114157;-73
2021/03/13 04:57:33;;;;;;;4.90;1.75;;;;;;;15.75;43.50;99339.34;4949919;28;124196;-74
2021/03/13 04:59:59;;;;;;;6.60;2.33;;;;;;;15.73;43.71;99315.59;4949378;28;124223;-76
2021/03/13 05:02:25;;;;;;;4.22;1.85;;;;;;;15.76;43.64;99333.09;4948387;28;114018;-77
2021/03/13 05:04:51;;;;;;;5.72;2.10;;;;;;;15.73;43.92;99357.06;4949540;28;115145;-73
2021/03/13 05:07:17;;;;;;;3.95;1.60;;;;;;;15.73;44.09;99346.50;4949466;28;123970;-74
2021/03/13 05:09:44;;;;;;;9.15;2.00;;;;;;;15.76;43.82;99382.50;4949767;28;123868;-73
2021/03/13 05:12:10;;;;;;;4.60;1.88;;;;;;;15.76;43.71;99409.78;4950134;28;114391;-74
2021/03/13 05:14:36;;;;;;;5.90;1.83;;;;;;;15.76;43.91;99399.22;4950607;28;114368;-74
2021/03/13 05:17:02;;;;;;;6.38;1.95;;;;;;;15.74;43.99;99337.59;4948611;28;123656;-73
2021/03/13 05:19:28;;;;;;;3.05;1.60;;;;;;;15.75;43.96;99363.13;4950191;28;124497;-73
2021/03/13 05:21:54;;;;;;;3.45;1.80;;;;;;;15.73;44.13;99394.09;4950254;28;114348;-72
2021/03/13 05:24:20;;;;;;;4.93;1.75;;;;;;;15.74;43.98;99377.28;4933908;28;114149;-73
2021/03/13 05:26:47;;;;;;;6.63;1.90;;;;;;;15.73;43.93;99294.44;4929831;28;124289;-73
2021/03/13 05:29:13;;;;;;;5.45;1.95;;;;;;;15.77;43.90;99321.53;4930616;28;123918;-72
2021/03/13 05:31:39;;;;;;;4.70;1.65;;;;;;;15.73;43.86;99320.03;4942216;28;114649;-72
2021/03/13 05:34:05;;;;;;;4.15;1.83;;;;;;;15.76;43.79;99351.59;4950389;28;114327;-74
2021/03/13 05:36:31;;;;;;;4.82;1.80;;;;;;;15.75;43.87;99343.78;4953874;28;124369;-72
2021/03/13 05:38:57;;;;;;;2.17;1.60;;;;;;;15.77;43.76;99348.00;4947608;28;122541;-74
2021/03/13 05:41:23;;;;;;;5.00;1.77;;;;;;;15.77;43.49;99336.56;4949236;28;115037;-77
2021/03/13 05:43:51;;;;;;;4.25;1.38;;;;;;;15.75;43.64;99331.41;4952485;28;114155;-73
2021/03/13 05:46:18;;;;;;;4.80;1.50;;;;;;;15.73;43.70;99335.91;4953454;28;124137;-73
2021/03/13 05:48:45;;;;;;;6.85;1.70;;;;;;;15.73;43.72;99349.16;4938638;28;123910;-77
2021/03/13 05:51:15;;;;;;;3.22;1.30;;;;;;;15.72;43.69;99345.66;4934496;28;115436;-72
2021/03/13 05:53:41;;;;;;;3.38;1.52;;;;;;;15.75;43.58;99333.19;4924540;28;113876;-74
2021/03/13 05:56:10;;;;;;;4.47;1.50;;;;;;;15.77;43.44;99353.28;4931032;28;123280;-75
2021/03/13 05:58:37;;;;;;;2.58;1.20;;;;;;;15.73;43.59;99330.63;4931135;28;123634;-73
2021/03/13 06:01:05;;;;;;;5.72;1.70;;;;;;;15.74;43.37;99340.25;4940948;28;114309;-73
2021/03/13 06:03:34;;;;;;;2.53;1.45;;;;;;;15.73;43.33;99336.75;4953028;28;114197;-77
2021/03/13 06:06:01;;;;;;;2.33;1.38;;;;;;;15.73;43.30;99336.75;4953089;28;124863;-72
2021/03/13 06:08:29;;;;;;;3.42;1.30;;;;;;;15.75;43.18;99343.78;4952866;28;123851;-73
2021/03/13 06:10:56;;;;;;;1.65;1.25;;;;;;;15.72;43.17;99342.16;4966500;28;114164;-73
2021/03/13 06:13:23;;;;;;;2.55;1.40;;;;;;;15.71;43.25;99328.09;4952327;28;114583;-71
2021/03/13 06:15:50;;;;;;;1.42;1.30;;;;;;;15.72;43.09;99328.94;4951882;28;124171;-72
2021/03/13 06:18:16;;;;;;;4.20;1.55;;;;;;;15.74;42.99;99332.31;4952811;28;123936;-72
2021/03/13 06:20:42;;;;;;;3.65;1.55;;;;;;;15.71;43.09;99338.69;4950935;28;113660;-74
2021/03/13 06:23:08;;;;;;;4.15;1.70;;;;;;;15.73;43.16;99338.56;4944949;28;113289;-72
2021/03/13 06:25:37;;;;;;;5.78;1.85;;;;;;;15.76;42.95;99341.03;4933473;28;124231;-72
2021/03/13 06:28:04;;;;;;;3.95;1.75;;;;;;;15.74;42.94;99329.66;4931536;28;123322;-76
2021/03/13 06:30:47;;;;;;;3.28;1.55;;;;;;;15.73;43.11;99339.41;4935479;28;114941;-72
2021/03/13 06:33:33;;;;;;;3.53;1.70;;;;;;;15.76;42.73;99341.03;4951832;28;113939;-72
2021/03/13 06:36:05;;;;;;;4.18;1.70;;;;;;;15.76;42.93;99341.03;4949919;28;124373;-75
2021/03/13 06:38:34;;;;;;;2.88;1.35;;;;;;;15.77;42.94;99345.34;4951512;28;126045;-72
2021/03/13 06:41:22;;;;;;;5.13;1.55;;;;;;;15.80;42.91;99358.34;4951082;28;114319;-72
2021/03/13 06:43:53;;;;;;;4.18;1.98;;;;;;;15.83;42.69;99344.91;4952488;28;115708;-72
2021/03/13 06:46:21;;;;;;;6.28;1.80;;;;;;;15.91;42.61;99344.38;4960133;28;124236;-73
2021/03/13 06:48:55;;;;;;;2.25;1.40;;;;;;;15.90;42.60;99345.34;4956312;28;123527;-73
2021/03/13 06:51:38;;;;;;;4.10;1.55;;;;;;;15.89;42.73;99341.00;4950755;28;114614;-73
2021/03/13 06:54:10;;;;;;;5.25;1.75;;;;;;;15.92;42.44;99352.22;4951293;28;113808;-76
2021/03/13 06:56:45;;;;;;;6.72;2.15;;;;;;;15.93;42.27;99359.19;4952474;28;123627;-75
2021/03/13 06:59:30;;;;;;;3.30;1.77;;;;;;;15.95;42.06;99357.28;4952309;28;123850;-73
2021/03/13 07:02:03;;;;;;;4.55;1.70;;;;;;;16.00;42.01;99365.75;4952065;28;114201;-75
2021/03/13 07:04:31;;;;;;;4.15;1.63;;;;;;;16.03;42.14;99354.13;4962353;28;113564;-75
2021/03/13 07:06:58;;;;;;;4.03;1.50;;;;;;;16.02;42.03;99363.84;4953485;28;124054;-75
2021/03/13 07:09:46;;;;;;;5.50;2.15;;;;;;;16.08;41.96;99362.56;4950255;28;123920;-73
2021/03/13 07:12:32;;;;;;;4.07;1.48;;;;;;;16.10;41.28;99358.03;4951342;28;114247;-73
2021/03/13 07:15:19;;;;;;;6.10;1.60;;;;;;;16.12;41.61;99363.22;4951067;28;113944;-78
2021/03/13 07:17:52;;;;;;;5.78;2.03;;;;;;;16.15;41.08;99345.31;4951280;28;123954;-72
2021/03/13 07:20:24;;;;;;;5.10;1.83;;;;;;;16.14;41.57;99340.97;4949156;28;123636;-72
2021/03/13 07:22:53;;;;;;;6.10;2.17;;;;;;;16.19;41.17;99330.03;4953106;28;114451;-72
2021/03/13 07:25:21;;;;;;;6.85;1.90;;;;;;;16.15;41.41;99355.06;4959441;28;113403;-73
2021/03/13 07:27:53;;;;;;;7.10;1.98;;;;;;;16.17;41.17;99340.75;4961416;28;124211;-73
2021/03/13 07:30:20;;;;;;;5.95;1.95;;;;;;;16.20;40.72;99345.00;4958229;28;123907;-77
2021/03/13 07:33:09;;;;;;;10.52;2.67;;;;;;;16.22;40.73;99348.38;4957760;28;115234;-78
2021/03/13 07:35:38;;;;;;;7.70;2.50;;;;;;;16.24;41.15;99375.59;4957706;28;115536;-74
2021/03/13 07:38:10;;;;;;;4.28;1.75;;;;;;;16.26;41.21;99352.50;4960869;28;123079;-76
2021/03/13 07:40:43;;;;;;;8.23;2.25;;;;;;;16.23;40.99;99355.38;4959915;28;124850;-73
2021/03/13 07:43:12;;;;;;;7.03;2.45;;;;;;;16.25;41.42;99369.34;4950201;28;114187;-80
2021/03/13 07:45:39;;;;;;;9.10;1.95;;;;;;;16.24;41.63;99379.06;4961934;28;114291;-74
2021/03/13 07:48:08;;;;;;;9.25;2.03;;;;;;;16.21;41.15;99376.66;4959518;28;124983;-74
2021/03/13 07:50:34;;;;;;;7.82;1.88;;;;;;;16.21;41.19;99389.88;4947410;28;124987;-74
2021/03/13 07:53:01;;;;;;;7.18;2.03;;;;;;;16.18;40.80;99390.09;4950006;28;114448;-78
2021/03/13 07:55:28;;;;;;;6.88;1.92;;;;;;;16.19;41.05;99391.78;4949663;28;114535;-77
2021/03/13 07:57:55;;;;;;;6.22;1.70;;;;;;;16.14;41.00;99374.53;4949684;28;123877;-77
2021/03/13 08:00:41;;;;;;;7.22;2.03;;;;;;;16.21;40.83;99389.03;4949177;28;123272;-75
2021/03/13 08:03:34;;;;;;;8.95;2.58;;;;;;;16.42;40.52;99384.00;4948909;28;114500;-77
2021/03/13 08:06:05;;;;;;;5.00;2.47;;;;;;;16.74;39.53;99381.72;4945854;28;114915;-77
2021/03/13 08:08:43;;;;;;;5.00;2.42;;;;;;;17.20;38.87;99368.59;4947183;28;123831;-77
2021/03/13 08:11:17;;;;;;;9.40;2.53;;;;;;;17.29;38.21;99369.72;4956284;28;124190;-75
2021/03/13 08:13:55;;;;;;;8.30;2.30;;;;;;;17.59;37.35;99367.41;4961437;28;113601;-76
2021/03/13 08:16:33;;;;;;;8.20;2.40;;;;;;;17.73;37.54;99345.16;4952810;28;114487;-79
2021/03/13 08:18:59;;;;;;;7.38;2.75;;;;;;;17.79;37.34;99346.50;4948702;28;124975;-79
2021/03/13 08:21:25;;;;;;;6.47;2.40;;;;;;;17.84;37.02;99363.75;4949806;28;123524;-80
2021/03/13 08:24:01;;;;;;;5.25;2.17;;;;;;;17.78;37.42;99368.66;4949721;28;114884;-74
2021/03/13 08:26:34;;;;;;;9.10;2.50;;;;;;;17.86;37.46;99367.13;4949937;28;115803;-74
2021/03/13 08:29:06;;;;;;;9.02;2.50;;;;;;;17.79;37.46;99363.25;4948964;28;124895;-74
2021/03/13 08:31:45;;;;;;;6.53;2.70;;;;;;;17.90;37.49;99359.78;4950079;28;123756;-76
2021/03/13 08:34:11;;;;;;;10.65;2.47;;;;;;;17.83;37.32;99372.66;4949941;28;114900;-76
2021/03/13 08:36:40;;;;;;;12.30;3.05;;;;;;;17.77;37.58;99364.31;4949464;28;114146;-76
2021/03/13 08:39:11;;;;;;;7.43;2.67;;;;;;;17.69;37.75;99364.94;4948969;28;123887;-79
2021/03/13 08:41:43;;;;;;;10.05;2.85;;;;;;;17.67;37.69;99380.09;4939559;28;123654;-74
2021/03/13 08:44:11;;;;;;;13.10;3.22;;;;;;;17.71;37.35;99379.78;4950061;28;114259;-76
2021/03/13 08:46:53;;;;;;;12.90;3.13;;;;;;;17.69;37.45;99396.78;4950129;28;113578;-76
2021/03/13 08:49:25;;;;;;;13.35;3.47;;;;;;;17.58;37.81;99394.91;4950953;28;124528;-75
2021/03/13 08:52:07;;;;;;;9.55;3.00;;;;;;;17.58;37.83;99400.22;4946015;28;124328;-76
2021/03/13 08:54:47;;;;;;;19.63;3.92;;;;;;;17.58;37.50;99399.38;4945534;28;113581;-76
2021/03/13 08:57:14;;;;;;;13.10;3.50;;;;;;;17.50;38.48;99396.44;4947462;28;114460;-77
2021/03/13 09:00:00;;;;;;;12.18;2.83;;;;;;;17.48;38.52;99425.72;4961172;28;124163;-76
2021/03/13 09:02:29;;;;;;;11.38;3.45;;;;;;;17.40;38.93;99412.19;4952013;28;123754;-78
2021/03/13 09:05:04;;;;;;;13.18;3.45;;;;;;;17.31;38.89;99402.25;4949932;28;114540;-77
2021/03/13 09:07:30;;;;;;;21.77;3.95;;;;;;;17.35;39.07;99409.06;4930536;28;114337;-77
2021/03/13 09:09:57;;;;;;;18.83;4.07;;;;;;;17.27;39.27;99416.72;4950436;28;124671;-77
2021/03/13 09:12:25;;;;;;;16.52;4.07;;;;;;;17.33;39.19;99405.66;4959578;28;124346;-77
2021/03/13 09:14:56;;;;;;;19.95;4.30;;;;;;;17.35;39.08;99404.59;4950980;28;115542;-77
2021/03/13 09:17:25;;;;;;;16.58;3.85;;;;;;;17.48;38.95;99409.81;4958685;28;115615;-77
2021/03/13 09:19:53;;;;;;;18.85;3.97;;;;;;;17.53;38.76;99410.31;4970577;28;124447;-76
2021/03/13 09:22:23;;;;;;;19.75;3.97;;;;;;;17.53;38.50;99405.00;4942987;28;123556;-77
2021/03/13 09:24:57;;;;;;;16.70;4.32;;;;;;;17.56;38.81;99415.41;4950411;28;114331;-78
2021/03/13 09:27:27;;;;;;;18.33;4.07;;;;;;;17.68;38.75;99421.59;4951009;28;114226;-78
2021/03/13 09:29:55;;;;;;;13.57;3.42;;;;;;;17.71;38.38;99411.59;4949826;28;123123;-77
2021/03/13 09:32:23;;;;;;;14.50;4.13;;;;;;;17.69;38.53;99402.94;4951947;28;124013;-74
2021/03/13 09:34:53;;;;;;;17.92;4.03;;;;;;;17.68;38.80;99411.81;4952652;28;114397;-75
2021/03/13 09:37:30;;;;;;;13.80;3.55;;;;;;;17.65;38.31;99411.19;4934358;28;114188;-75
2021/03/13 09:40:16;;;;;;;10.75;3.53;;;;;;;17.62;38.63;99417.56;4951454;28;124070;-74
2021/03/13 09:42:45;;;;;;;15.55;3.65;;;;;;;17.56;38.91;99409.25;4943064;28;123895;-73
2021/03/13 09:45:13;;;;;;;12.15;3.40;;;;;;;17.55;38.63;99415.50;4935230;28;113527;-75
2021/03/13 09:47:50;;;;;;;19.55;4.20;;;;;;;17.69;37.95;99410.88;4952478;28;113911;-73
2021/03/13 09:50:19;;;;;;;17.45;4.53;;;;;;;17.69;39.86;99436.56;4951786;28;126567;-75
2021/03/13 09:52:47;;;;;;;12.77;3.60;;;;;;;17.74;39.58;99435.25;4949462;28;123450;-74
2021/03/13 09:55:24;;;;;;;14.82;3.78;;;;;;;17.72;38.81;99421.25;4949629;28;114747;-75
2021/03/13 09:57:53;;;;;;;18.15;4.10;;;;;;;17.75;38.64;99413.06;4955199;28;114272;-75
2021/03/13 10:00:20;;;;;;;17.27;4.05;;;;;;;17.79;38.38;99418.16;4964687;28;123460;-76
2021/03/13 10:02:48;;;;;;;15.75;3.60;;;;;;;17.75;38.36;99413.06;4964751;28;122867;-74
2021/03/13 10:05:16;;;;;;;12.95;3.95;;;;;;;17.65;38.69;99424.44;4953914;28;115160;-75
2021/03/13 10:07:45;;;;;;;14.55;4.05;;;;;;;17.63;38.50;99413.97;4956351;28;114877;-75
2021/03/13 10:10:14;;;;;;;11.90;3.45;;;;;;;17.64;38.21;99423.59;4956127;28;124837;-75
2021/03/13 10:12:49;;;;;;;11.90;3.97;;;;;;;17.64;38.24;99423.59;4963194;28;123854;-75
2021/03/13 10:15:19;;;;;;;12.93;4.05;;;;;;;17.59;38.13;99419.63;4967137;28;115017;-75
2021/03/13 10:17:53;;;;;;;17.38;4.13;;;;;;;17.71;38.01;99435.50;4973865;28;114818;-76
2021/03/13 10:20:20;;;;;;;12.52;3.78;;;;;;;17.60;38.37;99426.63;4955337;28;124028;-75
2021/03/13 10:22:47;;;;;;;14.75;3.90;;;;;;;17.68;38.12;99432.19;4954758;28;123875;-75
2021/03/13 10:25:13;;;;;;;16.65;3.88;;;;;;;17.78;38.41;99432.34;4953917;28;114235;-73
2021/03/13 10:27:39;;;;;;;13.00;4.57;;;;;;;17.79;38.69;99416.34;4970725;28;114205;-76
2021/03/13 10:30:09;;;;;;;16.55;3.65;;;;;;;17.68;38.79;99451.63;4958168;28;123192;-75
2021/03/13 10:32:37;;;;;;;15.85;4.07;;;;;;;17.65;38.55;99449.16;4954119;28;124302;-78
2021/03/13 10:35:08;;;;;;;15.32;5.00;;;;;;;17.61;38.72;99439.75;4953811;28;114282;-74
2021/03/13 10:37:43;;;;;;;9.65;3.25;;;;;;;17.61;38.87;99453.03;4954352;28;114526;-75
2021/03/13 10:40:30;;;;;;;8.40;3.22;;;;;;;17.57;38.75;99454.22;4951493;28;124221;-74
2021/03/13 10:43:22;;;;;;;14.98;3.22;;;;;;;17.60;38.77;99408.88;4954379;28;124110;-75
2021/03/13 10:45:57;;;;;;;10.82;3.72;;;;;;;17.55;38.50;99440.22;4954201;28;114151;-75
2021/03/13 10:48:31;;;;;;;13.70;3.80;;;;;;;17.52;38.62;99444.91;4962637;28;113801;-75
2021/03/13 10:50:58;;;;;;;12.23;3.28;;;;;;;17.54;38.60;99461.53;4950686;28;124379;-75
2021/03/13 10:53:36;;;;;;;12.48;3.40;;;;;;;17.45;38.19;99487.81;4963035;28;124215;-76
2021/03/13 10:56:05;;;;;;;16.38;3.40;;;;;;;17.36;38.43;99469.09;4963361;28;115448;-75
2021/03/13 10:58:36;;;;;;;14.32;3.60;;;;;;;17.27;38.43;99481.19;4951965;28;115916;-74
2021/03/13 11:01:05;;;;;;;17.45;3.22;;;;;;;17.35;38.16;99483.31;4959698;28;124234;-76
2021/03/13 11:03:33;;;;;;;15.27;3.58;;;;;;;17.38;38.25;99493.69;4966902;28;123782;-75
2021/03/13 11:05:59;;;;;;;14.32;3.17;;;;;;;17.42;38.26;99484.53;4945349;28;114390;-75
2021/03/13 11:08:26;;;;;;;17.20;4.03;;;;;;;17.49;38.13;99480.47;4950742;28;114201;-75
2021/03/13 11:10:54;;;;;;;12.93;3.50;;;;;;;17.45;38.28;99479.88;4953237;28;124056;-75
2021/03/13 11:13:22;;;;;;;14.20;3.45;;;;;;;17.39;37.75;99490.06;4953779;28;124467;-75
2021/03/13 11:15:48;;;;;;;15.75;3.42;;;;;;;17.22;37.92;99491.31;4953665;28;114419;-76
2021/03/13 11:18:14;;;;;;;11.15;3.05;;;;;;;17.23;38.05;99493.00;4953344;28;114315;-75
2021/03/13 11:20:41;;;;;;;15.30;4.05;;;;;;;17.24;37.61;99496.50;4952841;28;124443;-75
2021/03/13 11:23:08;;;;;;;11.80;3.80;;;;;;;17.17;37.64;99491.63;4953256;28;123931;-76
2021/03/13 11:25:35;;;;;;;13.85;3.50;;;;;;;17.07;37.85;99500.34;4952320;28;114193;-76
2021/03/13 11:28:05;;;;;;;14.43;3.65;;;;;;;17.03;37.65;99510.34;4936045;28;113339;-76
2021/03/13 11:30:31;;;;;;;14.75;4.00;;;;;;;17.02;37.69;99529.84;4951945;28;124758;-75
2021/03/13 11:32:57;;;;;;;12.50;3.20;;;;;;;17.12;37.61;99508.84;4952700;28;124061;-76
2021/03/13 11:35:24;;;;;;;16.88;4.00;;;;;;;17.12;37.57;99512.34;4952778;28;114294;-75
2021/03/13 11:37:51;;;;;;;13.68;3.53;;;;;;;17.07;37.59;99548.91;4953758;28;114404;-80